Terminal Aerodrome Forecast
Issued by NWS

Home | Current Version | Previous Version | Text Only | Print | Product List | Glossary On
Versions: 1 2 3 4 5 6 7 8 9 10 11 12 13 14
000
FTUS41 KBTV 171100
TAFRUT
TAF
KRUT 171131Z 1712/1812 13004KT P6SM FEW250
     FM171600 26006KT P6SM FEW250
     FM180200 15005KT P6SM SCT060
     FM180800 00000KT P6SM BKN060
      AMD LTD TO CLD VIS AND WIND=

USA.gov is the U.S. government's official web portal to all federal, state and local government web resources and services.